sensor_id;sensor_type;location;lat;lon;timestamp;P1;P2;P0
80692;PMS5003;70055;39.436;-77.514;2023-07-31T00:01:24;5;5;
80692;PMS5003;70055;39.436;-77.514;2023-07-31T00:03:53;8;8;
80692;PMS5003;70055;39.436;-77.514;2023-07-31T00:06:21;6;6;
80692;PMS5003;70055;39.436;-77.514;2023-07-31T00:08:49;6;6;
80692;PMS5003;70055;39.436;-77.514;2023-07-31T00:11:17;7;7;
80692;PMS5003;70055;39.436;-77.514;2023-07-31T00:13:46;8;8;
80692;PMS5003;70055;39.436;-77.514;2023-07-31T00:16:15;7;7;
80692;PMS5003;70055;39.436;-77.514;2023-07-31T00:18:43;6;5;
80692;PMS5003;70055;39.436;-77.514;2023-07-31T00:21:11;7;7;
80692;PMS5003;70055;39.436;-77.514;2023-07-31T00:23:40;7;7;
80692;PMS5003;70055;39.436;-77.514;2023-07-31T00:26:09;8;8;
80692;PMS5003;70055;39.436;-77.514;2023-07-31T00:28:37;7;7;
80692;PMS5003;70055;39.436;-77.514;2023-07-31T00:31:05;7;7;
80692;PMS5003;70055;39.436;-77.514;2023-07-31T00:33:34;7;7;
80692;PMS5003;70055;39.436;-77.514;2023-07-31T00:36:03;9;9;
80692;PMS5003;70055;39.436;-77.514;2023-07-31T00:38:31;7;7;
80692;PMS5003;70055;39.436;-77.514;2023-07-31T00:40:59;9;8;
80692;PMS5003;70055;39.436;-77.514;2023-07-31T00:43:27;8;8;
80692;PMS5003;70055;39.436;-77.514;2023-07-31T00:45:55;7;7;
80692;PMS5003;70055;39.436;-77.514;2023-07-31T00:48:23;7;7;
80692;PMS5003;70055;39.436;-77.514;2023-07-31T00:50:51;7;7;
80692;PMS5003;70055;39.436;-77.514;2023-07-31T00:53:21;7;7;
80692;PMS5003;70055;39.436;-77.514;2023-07-31T00:55:49;8;8;
80692;PMS5003;70055;39.436;-77.514;2023-07-31T00:58:20;7;7;
80692;PMS5003;70055;39.436;-77.514;2023-07-31T01:00:48;7;7;
80692;PMS5003;70055;39.436;-77.514;2023-07-31T01:03:17;10;10;
80692;PMS5003;70055;39.436;-77.514;2023-07-31T01:05:48;7;7;
80692;PMS5003;70055;39.436;-77.514;2023-07-31T01:08:32;7;7;
80692;PMS5003;70055;39.436;-77.514;2023-07-31T01:11:11;9;9;
80692;PMS5003;70055;39.436;-77.514;2023-07-31T01:13:44;8;8;
80692;PMS5003;70055;39.436;-77.514;2023-07-31T01:16:13;9;9;
80692;PMS5003;70055;39.436;-77.514;2023-07-31T01:18:42;11;10;
80692;PMS5003;70055;39.436;-77.514;2023-07-31T01:21:15;9;9;
80692;PMS5003;70055;39.436;-77.514;2023-07-31T01:23:57;7;7;
80692;PMS5003;70055;39.436;-77.514;2023-07-31T01:26:47;5;5;
80692;PMS5003;70055;39.436;-77.514;2023-07-31T01:29:23;8;8;
80692;PMS5003;70055;39.436;-77.514;2023-07-31T01:31:56;8;8;
80692;PMS5003;70055;39.436;-77.514;2023-07-31T01:34:28;8;8;
80692;PMS5003;70055;39.436;-77.514;2023-07-31T01:36:58;9;9;
80692;PMS5003;70055;39.436;-77.514;2023-07-31T01:39:26;7;7;
80692;PMS5003;70055;39.436;-77.514;2023-07-31T01:41:54;7;7;
80692;PMS5003;70055;39.436;-77.514;2023-07-31T01:44:24;8;8;
80692;PMS5003;70055;39.436;-77.514;2023-07-31T01:46:52;9;9;
80692;PMS5003;70055;39.436;-77.514;2023-07-31T01:49:20;10;10;
80692;PMS5003;70055;39.436;-77.514;2023-07-31T01:51:48;8;8;
80692;PMS5003;70055;39.436;-77.514;2023-07-31T01:54:16;8;8;
80692;PMS5003;70055;39.436;-77.514;2023-07-31T01:56:43;8;8;
80692;PMS5003;70055;39.436;-77.514;2023-07-31T01:59:11;7;7;
80692;PMS5003;70055;39.436;-77.514;2023-07-31T02:01:39;9;9;
80692;PMS5003;70055;39.436;-77.514;2023-07-31T02:04:08;9;8;
80692;PMS5003;70055;39.436;-77.514;2023-07-31T02:06:36;8;8;
80692;PMS5003;70055;39.436;-77.514;2023-07-31T02:09:07;8;8;
80692;PMS5003;70055;39.436;-77.514;2023-07-31T02:11:35;7;7;
80692;PMS5003;70055;39.436;-77.514;2023-07-31T02:14:03;8;8;
80692;PMS5003;70055;39.436;-77.514;2023-07-31T02:16:32;8;8;
80692;PMS5003;70055;39.436;-77.514;2023-07-31T02:19:01;8;8;
80692;PMS5003;70055;39.436;-77.514;2023-07-31T02:21:29;6;6;
80692;PMS5003;70055;39.436;-77.514;2023-07-31T02:23:57;7;7;
80692;PMS5003;70055;39.436;-77.514;2023-07-31T02:26:25;7;7;
80692;PMS5003;70055;39.436;-77.514;2023-07-31T02:28:53;6;6;
80692;PMS5003;70055;39.436;-77.514;2023-07-31T02:31:23;6;6;
80692;PMS5003;70055;39.436;-77.514;2023-07-31T02:33:51;7;7;
80692;PMS5003;70055;39.436;-77.514;2023-07-31T02:36:19;6;6;
80692;PMS5003;70055;39.436;-77.514;2023-07-31T02:38:48;6;6;
80692;PMS5003;70055;39.436;-77.514;2023-07-31T02:41:16;5;5;
80692;PMS5003;70055;39.436;-77.514;2023-07-31T02:43:45;8;8;
80692;PMS5003;70055;39.436;-77.514;2023-07-31T02:46:13;6;6;
80692;PMS5003;70055;39.436;-77.514;2023-07-31T02:48:42;6;6;
80692;PMS5003;70055;39.436;-77.514;2023-07-31T02:51:10;7;7;
80692;PMS5003;70055;39.436;-77.514;2023-07-31T02:53:37;6;6;
80692;PMS5003;70055;39.436;-77.514;2023-07-31T02:56:06;7;7;
80692;PMS5003;70055;39.436;-77.514;2023-07-31T02:58:34;6;6;
80692;PMS5003;70055;39.436;-77.514;2023-07-31T03:01:04;7;6;
80692;PMS5003;70055;39.436;-77.514;2023-07-31T03:03:33;5;5;
80692;PMS5003;70055;39.436;-77.514;2023-07-31T03:06:01;7;6;
80692;PMS5003;70055;39.436;-77.514;2023-07-31T03:08:30;8;8;
80692;PMS5003;70055;39.436;-77.514;2023-07-31T03:11:00;8;8;
80692;PMS5003;70055;39.436;-77.514;2023-07-31T03:13:29;8;8;
80692;PMS5003;70055;39.436;-77.514;2023-07-31T03:15:57;10;10;
80692;PMS5003;70055;39.436;-77.514;2023-07-31T03:18:25;9;9;
80692;PMS5003;70055;39.436;-77.514;2023-07-31T03:20:52;8;8;
80692;PMS5003;70055;39.436;-77.514;2023-07-31T03:23:20;10;9;
80692;PMS5003;70055;39.436;-77.514;2023-07-31T03:25:57;9;9;
80692;PMS5003;70055;39.436;-77.514;2023-07-31T03:28:26;10;10;
80692;PMS5003;70055;39.436;-77.514;2023-07-31T03:30:53;8;8;
80692;PMS5003;70055;39.436;-77.514;2023-07-31T03:33:22;11;10;
80692;PMS5003;70055;39.436;-77.514;2023-07-31T03:35:51;8;8;
80692;PMS5003;70055;39.436;-77.514;2023-07-31T03:38:21;11;10;
80692;PMS5003;70055;39.436;-77.514;2023-07-31T03:40:48;12;11;
80692;PMS5003;70055;39.436;-77.514;2023-07-31T03:43:17;10;10;
80692;PMS5003;70055;39.436;-77.514;2023-07-31T03:45:45;7;7;
80692;PMS5003;70055;39.436;-77.514;2023-07-31T03:48:14;10;9;
80692;PMS5003;70055;39.436;-77.514;2023-07-31T03:50:43;8;8;
80692;PMS5003;70055;39.436;-77.514;2023-07-31T03:53:11;11;10;
80692;PMS5003;70055;39.436;-77.514;2023-07-31T03:55:39;9;9;
80692;PMS5003;70055;39.436;-77.514;2023-07-31T03:58:07;9;9;
80692;PMS5003;70055;39.436;-77.514;2023-07-31T04:00:35;10;10;
80692;PMS5003;70055;39.436;-77.514;2023-07-31T04:03:03;11;11;
80692;PMS5003;70055;39.436;-77.514;2023-07-31T04:05:31;9;9;
80692;PMS5003;70055;39.436;-77.514;2023-07-31T04:08:00;8;8;
80692;PMS5003;70055;39.436;-77.514;2023-07-31T04:10:28;10;10;
80692;PMS5003;70055;39.436;-77.514;2023-07-31T04:12:56;9;9;
80692;PMS5003;70055;39.436;-77.514;2023-07-31T04:15:25;11;11;
80692;PMS5003;70055;39.436;-77.514;2023-07-31T04:17:54;10;10;
80692;PMS5003;70055;39.436;-77.514;2023-07-31T04:20:22;10;10;
80692;PMS5003;70055;39.436;-77.514;2023-07-31T04:22:51;10;10;
80692;PMS5003;70055;39.436;-77.514;2023-07-31T04:25:19;11;11;
80692;PMS5003;70055;39.436;-77.514;2023-07-31T04:27:46;12;12;
80692;PMS5003;70055;39.436;-77.514;2023-07-31T04:30:14;10;10;
80692;PMS5003;70055;39.436;-77.514;2023-07-31T04:32:42;11;11;
80692;PMS5003;70055;39.436;-77.514;2023-07-31T04:35:10;12;12;
80692;PMS5003;70055;39.436;-77.514;2023-07-31T04:37:39;14;14;
80692;PMS5003;70055;39.436;-77.514;2023-07-31T04:40:08;13;13;
80692;PMS5003;70055;39.436;-77.514;2023-07-31T04:42:37;13;13;
80692;PMS5003;70055;39.436;-77.514;2023-07-31T04:45:08;12;11;
80692;PMS5003;70055;39.436;-77.514;2023-07-31T04:47:36;12;12;
80692;PMS5003;70055;39.436;-77.514;2023-07-31T04:50:05;14;13;
80692;PMS5003;70055;39.436;-77.514;2023-07-31T04:52:34;13;13;
80692;PMS5003;70055;39.436;-77.514;2023-07-31T04:55:02;11;11;
80692;PMS5003;70055;39.436;-77.514;2023-07-31T04:57:31;14;14;
80692;PMS5003;70055;39.436;-77.514;2023-07-31T04:59:59;12;12;
80692;PMS5003;70055;39.436;-77.514;2023-07-31T05:02:27;13;13;
80692;PMS5003;70055;39.436;-77.514;2023-07-31T05:04:55;13;13;
80692;PMS5003;70055;39.436;-77.514;2023-07-31T05:07:23;15;15;
80692;PMS5003;70055;39.436;-77.514;2023-07-31T05:09:51;13;13;
80692;PMS5003;70055;39.436;-77.514;2023-07-31T05:12:20;12;12;
80692;PMS5003;70055;39.436;-77.514;2023-07-31T05:14:49;13;13;
80692;PMS5003;70055;39.436;-77.514;2023-07-31T05:17:16;16;15;
80692;PMS5003;70055;39.436;-77.514;2023-07-31T05:19:44;15;15;
80692;PMS5003;70055;39.436;-77.514;2023-07-31T05:22:12;14;13;
80692;PMS5003;70055;39.436;-77.514;2023-07-31T05:24:40;13;12;
80692;PMS5003;70055;39.436;-77.514;2023-07-31T05:27:08;16;16;
80692;PMS5003;70055;39.436;-77.514;2023-07-31T05:29:37;14;14;
80692;PMS5003;70055;39.436;-77.514;2023-07-31T05:32:07;17;17;
80692;PMS5003;70055;39.436;-77.514;2023-07-31T05:34:36;14;14;
80692;PMS5003;70055;39.436;-77.514;2023-07-31T05:37:04;17;17;
80692;PMS5003;70055;39.436;-77.514;2023-07-31T05:39:32;14;14;
80692;PMS5003;70055;39.436;-77.514;2023-07-31T05:42:00;15;15;
80692;PMS5003;70055;39.436;-77.514;2023-07-31T05:44:29;15;15;
80692;PMS5003;70055;39.436;-77.514;2023-07-31T05:46:57;17;17;
80692;PMS5003;70055;39.436;-77.514;2023-07-31T05:49:25;15;15;
80692;PMS5003;70055;39.436;-77.514;2023-07-31T05:51:53;12;12;
80692;PMS5003;70055;39.436;-77.514;2023-07-31T05:54:21;14;14;
80692;PMS5003;70055;39.436;-77.514;2023-07-31T05:56:49;11;11;
80692;PMS5003;70055;39.436;-77.514;2023-07-31T05:59:17;13;13;
80692;PMS5003;70055;39.436;-77.514;2023-07-31T06:01:45;16;16;
80692;PMS5003;70055;39.436;-77.514;2023-07-31T06:04:13;12;12;
80692;PMS5003;70055;39.436;-77.514;2023-07-31T06:06:42;14;14;
80692;PMS5003;70055;39.436;-77.514;2023-07-31T06:09:10;11;11;
80692;PMS5003;70055;39.436;-77.514;2023-07-31T06:11:37;13;13;
80692;PMS5003;70055;39.436;-77.514;2023-07-31T06:14:05;12;12;
80692;PMS5003;70055;39.436;-77.514;2023-07-31T06:16:33;13;12;
80692;PMS5003;70055;39.436;-77.514;2023-07-31T06:19:01;13;13;
80692;PMS5003;70055;39.436;-77.514;2023-07-31T06:21:29;12;12;
80692;PMS5003;70055;39.436;-77.514;2023-07-31T06:23:57;14;13;
80692;PMS5003;70055;39.436;-77.514;2023-07-31T06:26:25;15;14;
80692;PMS5003;70055;39.436;-77.514;2023-07-31T06:28:53;12;12;
80692;PMS5003;70055;39.436;-77.514;2023-07-31T06:31:21;15;15;
80692;PMS5003;70055;39.436;-77.514;2023-07-31T06:33:49;16;15;
80692;PMS5003;70055;39.436;-77.514;2023-07-31T06:36:17;13;13;
80692;PMS5003;70055;39.436;-77.514;2023-07-31T06:38:45;15;15;
80692;PMS5003;70055;39.436;-77.514;2023-07-31T06:41:13;15;15;
80692;PMS5003;70055;39.436;-77.514;2023-07-31T06:43:41;14;14;
80692;PMS5003;70055;39.436;-77.514;2023-07-31T06:46:09;14;14;
80692;PMS5003;70055;39.436;-77.514;2023-07-31T06:48:37;15;15;
80692;PMS5003;70055;39.436;-77.514;2023-07-31T06:51:05;18;16;
80692;PMS5003;70055;39.436;-77.514;2023-07-31T06:53:33;13;13;
80692;PMS5003;70055;39.436;-77.514;2023-07-31T06:56:01;18;18;
80692;PMS5003;70055;39.436;-77.514;2023-07-31T06:58:30;15;15;
80692;PMS5003;70055;39.436;-77.514;2023-07-31T07:00:58;18;18;
80692;PMS5003;70055;39.436;-77.514;2023-07-31T07:03:26;15;15;
80692;PMS5003;70055;39.436;-77.514;2023-07-31T07:05:53;15;15;
80692;PMS5003;70055;39.436;-77.514;2023-07-31T07:08:21;16;15;
80692;PMS5003;70055;39.436;-77.514;2023-07-31T07:10:49;17;17;
80692;PMS5003;70055;39.436;-77.514;2023-07-31T07:13:18;16;16;
80692;PMS5003;70055;39.436;-77.514;2023-07-31T07:15:47;17;16;
80692;PMS5003;70055;39.436;-77.514;2023-07-31T07:18:15;16;16;
80692;PMS5003;70055;39.436;-77.514;2023-07-31T07:20:46;19;17;
80692;PMS5003;70055;39.436;-77.514;2023-07-31T07:23:17;18;17;
80692;PMS5003;70055;39.436;-77.514;2023-07-31T07:25:46;18;18;
80692;PMS5003;70055;39.436;-77.514;2023-07-31T07:28:15;15;15;
80692;PMS5003;70055;39.436;-77.514;2023-07-31T07:30:43;18;17;
80692;PMS5003;70055;39.436;-77.514;2023-07-31T07:33:11;16;16;
80692;PMS5003;70055;39.436;-77.514;2023-07-31T07:35:39;14;14;
80692;PMS5003;70055;39.436;-77.514;2023-07-31T07:38:08;17;15;
80692;PMS5003;70055;39.436;-77.514;2023-07-31T07:40:38;13;13;
80692;PMS5003;70055;39.436;-77.514;2023-07-31T07:43:07;16;16;
80692;PMS5003;70055;39.436;-77.514;2023-07-31T07:45:35;16;15;
80692;PMS5003;70055;39.436;-77.514;2023-07-31T07:48:03;15;15;
80692;PMS5003;70055;39.436;-77.514;2023-07-31T07:50:32;18;18;
80692;PMS5003;70055;39.436;-77.514;2023-07-31T07:53:01;18;17;
80692;PMS5003;70055;39.436;-77.514;2023-07-31T07:55:30;19;19;
80692;PMS5003;70055;39.436;-77.514;2023-07-31T07:57:58;16;16;
80692;PMS5003;70055;39.436;-77.514;2023-07-31T08:00:27;19;19;
80692;PMS5003;70055;39.436;-77.514;2023-07-31T08:02:55;14;14;
80692;PMS5003;70055;39.436;-77.514;2023-07-31T08:05:23;15;15;
80692;PMS5003;70055;39.436;-77.514;2023-07-31T08:07:52;14;14;
80692;PMS5003;70055;39.436;-77.514;2023-07-31T08:10:20;16;15;
80692;PMS5003;70055;39.436;-77.514;2023-07-31T08:12:48;17;17;
80692;PMS5003;70055;39.436;-77.514;2023-07-31T08:15:16;16;16;
80692;PMS5003;70055;39.436;-77.514;2023-07-31T08:17:44;13;13;
80692;PMS5003;70055;39.436;-77.514;2023-07-31T08:20:12;16;15;
80692;PMS5003;70055;39.436;-77.514;2023-07-31T08:22:39;17;17;
80692;PMS5003;70055;39.436;-77.514;2023-07-31T08:25:07;12;12;
80692;PMS5003;70055;39.436;-77.514;2023-07-31T08:27:35;12;12;
80692;PMS5003;70055;39.436;-77.514;2023-07-31T08:30:04;12;12;
80692;PMS5003;70055;39.436;-77.514;2023-07-31T08:32:34;14;14;
80692;PMS5003;70055;39.436;-77.514;2023-07-31T08:35:03;12;12;
80692;PMS5003;70055;39.436;-77.514;2023-07-31T08:37:32;12;12;
80692;PMS5003;70055;39.436;-77.514;2023-07-31T08:40:00;14;13;
80692;PMS5003;70055;39.436;-77.514;2023-07-31T08:42:28;15;15;
80692;PMS5003;70055;39.436;-77.514;2023-07-31T08:44:57;15;14;
80692;PMS5003;70055;39.436;-77.514;2023-07-31T08:47:28;16;15;
80692;PMS5003;70055;39.436;-77.514;2023-07-31T08:49:57;16;15;
80692;PMS5003;70055;39.436;-77.514;2023-07-31T08:52:29;16;16;
80692;PMS5003;70055;39.436;-77.514;2023-07-31T08:54:57;16;16;
80692;PMS5003;70055;39.436;-77.514;2023-07-31T08:57:27;13;13;
80692;PMS5003;70055;39.436;-77.514;2023-07-31T08:59:56;14;14;
80692;PMS5003;70055;39.436;-77.514;2023-07-31T09:02:24;16;16;
80692;PMS5003;70055;39.436;-77.514;2023-07-31T09:04:58;12;12;
80692;PMS5003;70055;39.436;-77.514;2023-07-31T09:07:27;14;14;
80692;PMS5003;70055;39.436;-77.514;2023-07-31T09:09:55;14;14;
80692;PMS5003;70055;39.436;-77.514;2023-07-31T09:12:24;13;13;
80692;PMS5003;70055;39.436;-77.514;2023-07-31T09:14:52;14;14;
80692;PMS5003;70055;39.436;-77.514;2023-07-31T09:17:28;15;15;
80692;PMS5003;70055;39.436;-77.514;2023-07-31T09:19:56;13;13;
80692;PMS5003;70055;39.436;-77.514;2023-07-31T09:22:31;14;14;
80692;PMS5003;70055;39.436;-77.514;2023-07-31T09:25:05;12;12;
80692;PMS5003;70055;39.436;-77.514;2023-07-31T09:27:48;13;13;
80692;PMS5003;70055;39.436;-77.514;2023-07-31T09:30:17;16;16;
80692;PMS5003;70055;39.436;-77.514;2023-07-31T09:32:46;14;14;
80692;PMS5003;70055;39.436;-77.514;2023-07-31T09:35:18;13;13;
80692;PMS5003;70055;39.436;-77.514;2023-07-31T09:37:49;13;13;
80692;PMS5003;70055;39.436;-77.514;2023-07-31T09:40:26;12;12;
80692;PMS5003;70055;39.436;-77.514;2023-07-31T09:42:57;15;15;
80692;PMS5003;70055;39.436;-77.514;2023-07-31T09:45:26;14;14;
80692;PMS5003;70055;39.436;-77.514;2023-07-31T09:47:54;14;14;
80692;PMS5003;70055;39.436;-77.514;2023-07-31T09:50:23;16;16;
80692;PMS5003;70055;39.436;-77.514;2023-07-31T09:52:51;13;13;
80692;PMS5003;70055;39.436;-77.514;2023-07-31T09:55:19;15;15;
80692;PMS5003;70055;39.436;-77.514;2023-07-31T09:57:48;14;14;
80692;PMS5003;70055;39.436;-77.514;2023-07-31T10:00:18;13;13;
80692;PMS5003;70055;39.436;-77.514;2023-07-31T10:02:46;12;12;
80692;PMS5003;70055;39.436;-77.514;2023-07-31T10:05:15;13;13;
80692;PMS5003;70055;39.436;-77.514;2023-07-31T10:07:51;15;15;
80692;PMS5003;70055;39.436;-77.514;2023-07-31T10:10:22;12;12;
80692;PMS5003;70055;39.436;-77.514;2023-07-31T10:12:50;14;14;
80692;PMS5003;70055;39.436;-77.514;2023-07-31T10:15:20;15;15;
80692;PMS5003;70055;39.436;-77.514;2023-07-31T10:17:49;14;14;
80692;PMS5003;70055;39.436;-77.514;2023-07-31T10:20:18;13;13;
80692;PMS5003;70055;39.436;-77.514;2023-07-31T10:22:47;14;13;
80692;PMS5003;70055;39.436;-77.514;2023-07-31T10:25:15;12;12;
80692;PMS5003;70055;39.436;-77.514;2023-07-31T10:27:45;12;12;
80692;PMS5003;70055;39.436;-77.514;2023-07-31T10:30:16;15;14;
80692;PMS5003;70055;39.436;-77.514;2023-07-31T10:32:47;14;13;
80692;PMS5003;70055;39.436;-77.514;2023-07-31T10:35:16;14;14;
80692;PMS5003;70055;39.436;-77.514;2023-07-31T10:37:46;14;14;
80692;PMS5003;70055;39.436;-77.514;2023-07-31T10:40:16;13;13;
80692;PMS5003;70055;39.436;-77.514;2023-07-31T10:42:46;18;17;
80692;PMS5003;70055;39.436;-77.514;2023-07-31T10:45:24;13;13;
80692;PMS5003;70055;39.436;-77.514;2023-07-31T10:48:01;16;15;
80692;PMS5003;70055;39.436;-77.514;2023-07-31T10:50:31;15;15;
80692;PMS5003;70055;39.436;-77.514;2023-07-31T10:52:59;16;16;
80692;PMS5003;70055;39.436;-77.514;2023-07-31T10:55:28;16;16;
80692;PMS5003;70055;39.436;-77.514;2023-07-31T10:58:05;13;13;
80692;PMS5003;70055;39.436;-77.514;2023-07-31T11:00:36;15;15;
80692;PMS5003;70055;39.436;-77.514;2023-07-31T11:03:06;14;14;
80692;PMS5003;70055;39.436;-77.514;2023-07-31T11:05:51;14;14;
80692;PMS5003;70055;39.436;-77.514;2023-07-31T11:08:26;15;15;
80692;PMS5003;70055;39.436;-77.514;2023-07-31T11:11:05;14;14;
80692;PMS5003;70055;39.436;-77.514;2023-07-31T11:13:39;14;14;
80692;PMS5003;70055;39.436;-77.514;2023-07-31T11:16:09;14;14;
80692;PMS5003;70055;39.436;-77.514;2023-07-31T11:18:39;17;17;
80692;PMS5003;70055;39.436;-77.514;2023-07-31T11:21:08;15;15;
80692;PMS5003;70055;39.436;-77.514;2023-07-31T11:23:40;14;13;
80692;PMS5003;70055;39.436;-77.514;2023-07-31T11:26:13;15;15;
80692;PMS5003;70055;39.436;-77.514;2023-07-31T11:28:41;15;14;
80692;PMS5003;70055;39.436;-77.514;2023-07-31T11:31:09;15;15;
80692;PMS5003;70055;39.436;-77.514;2023-07-31T11:33:37;15;14;
80692;PMS5003;70055;39.436;-77.514;2023-07-31T11:36:14;17;17;
80692;PMS5003;70055;39.436;-77.514;2023-07-31T11:38:42;14;14;
80692;PMS5003;70055;39.436;-77.514;2023-07-31T11:41:10;15;14;
80692;PMS5003;70055;39.436;-77.514;2023-07-31T11:43:40;15;15;
80692;PMS5003;70055;39.436;-77.514;2023-07-31T11:46:09;14;13;
80692;PMS5003;70055;39.436;-77.514;2023-07-31T11:48:37;14;14;
80692;PMS5003;70055;39.436;-77.514;2023-07-31T11:51:08;14;14;
80692;PMS5003;70055;39.436;-77.514;2023-07-31T11:53:40;15;14;
80692;PMS5003;70055;39.436;-77.514;2023-07-31T11:56:13;16;16;
80692;PMS5003;70055;39.436;-77.514;2023-07-31T11:58:45;12;12;
80692;PMS5003;70055;39.436;-77.514;2023-07-31T12:01:15;13;13;
80692;PMS5003;70055;39.436;-77.514;2023-07-31T12:03:47;12;12;
80692;PMS5003;70055;39.436;-77.514;2023-07-31T12:06:16;12;11;
80692;PMS5003;70055;39.436;-77.514;2023-07-31T12:08:44;12;12;
80692;PMS5003;70055;39.436;-77.514;2023-07-31T12:11:12;13;13;
80692;PMS5003;70055;39.436;-77.514;2023-07-31T12:13:41;14;14;
80692;PMS5003;70055;39.436;-77.514;2023-07-31T12:16:08;12;12;
80692;PMS5003;70055;39.436;-77.514;2023-07-31T12:18:38;14;13;
80692;PMS5003;70055;39.436;-77.514;2023-07-31T12:21:08;11;11;
80692;PMS5003;70055;39.436;-77.514;2023-07-31T12:23:36;11;11;
80692;PMS5003;70055;39.436;-77.514;2023-07-31T12:26:05;11;11;
80692;PMS5003;70055;39.436;-77.514;2023-07-31T12:28:36;13;12;
80692;PMS5003;70055;39.436;-77.514;2023-07-31T12:31:08;15;14;
80692;PMS5003;70055;39.436;-77.514;2023-07-31T12:33:39;12;12;
80692;PMS5003;70055;39.436;-77.514;2023-07-31T12:36:08;12;12;
80692;PMS5003;70055;39.436;-77.514;2023-07-31T12:38:37;14;14;
80692;PMS5003;70055;39.436;-77.514;2023-07-31T12:41:06;10;10;
80692;PMS5003;70055;39.436;-77.514;2023-07-31T12:43:35;12;12;
80692;PMS5003;70055;39.436;-77.514;2023-07-31T12:46:06;11;11;
80692;PMS5003;70055;39.436;-77.514;2023-07-31T12:48:36;11;11;
80692;PMS5003;70055;39.436;-77.514;2023-07-31T12:51:05;13;13;
80692;PMS5003;70055;39.436;-77.514;2023-07-31T12:53:34;12;11;
80692;PMS5003;70055;39.436;-77.514;2023-07-31T12:56:03;10;10;
80692;PMS5003;70055;39.436;-77.514;2023-07-31T12:58:31;12;12;
80692;PMS5003;70055;39.436;-77.514;2023-07-31T13:00:59;13;12;
80692;PMS5003;70055;39.436;-77.514;2023-07-31T13:03:28;13;13;
80692;PMS5003;70055;39.436;-77.514;2023-07-31T13:05:56;11;11;
80692;PMS5003;70055;39.436;-77.514;2023-07-31T13:08:26;12;12;
80692;PMS5003;70055;39.436;-77.514;2023-07-31T13:10:54;14;14;
80692;PMS5003;70055;39.436;-77.514;2023-07-31T13:13:22;11;11;
80692;PMS5003;70055;39.436;-77.514;2023-07-31T13:15:50;13;13;
80692;PMS5003;70055;39.436;-77.514;2023-07-31T13:18:18;12;12;
80692;PMS5003;70055;39.436;-77.514;2023-07-31T13:20:46;13;13;
80692;PMS5003;70055;39.436;-77.514;2023-07-31T13:23:13;11;11;
80692;PMS5003;70055;39.436;-77.514;2023-07-31T13:25:41;13;12;
80692;PMS5003;70055;39.436;-77.514;2023-07-31T13:29:06;11;10;
80692;PMS5003;70055;39.436;-77.514;2023-07-31T13:31:34;12;12;
80692;PMS5003;70055;39.436;-77.514;2023-07-31T13:34:03;12;12;
80692;PMS5003;70055;39.436;-77.514;2023-07-31T13:36:31;10;10;
80692;PMS5003;70055;39.436;-77.514;2023-07-31T13:38:59;12;12;
80692;PMS5003;70055;39.436;-77.514;2023-07-31T13:41:28;11;11;
80692;PMS5003;70055;39.436;-77.514;2023-07-31T13:43:56;10;10;
80692;PMS5003;70055;39.436;-77.514;2023-07-31T13:46:25;11;11;
80692;PMS5003;70055;39.436;-77.514;2023-07-31T13:48:53;10;10;
80692;PMS5003;70055;39.436;-77.514;2023-07-31T13:51:21;11;11;
80692;PMS5003;70055;39.436;-77.514;2023-07-31T13:53:49;10;10;
80692;PMS5003;70055;39.436;-77.514;2023-07-31T13:56:18;12;12;
80692;PMS5003;70055;39.436;-77.514;2023-07-31T13:58:46;11;11;
80692;PMS5003;70055;39.436;-77.514;2023-07-31T14:01:15;8;8;
80692;PMS5003;70055;39.436;-77.514;2023-07-31T14:03:43;10;10;
80692;PMS5003;70055;39.436;-77.514;2023-07-31T14:06:11;10;10;
80692;PMS5003;70055;39.436;-77.514;2023-07-31T14:08:39;11;10;
80692;PMS5003;70055;39.436;-77.514;2023-07-31T14:11:08;10;10;
80692;PMS5003;70055;39.436;-77.514;2023-07-31T14:13:36;11;10;
80692;PMS5003;70055;39.436;-77.514;2023-07-31T14:16:04;11;11;
80692;PMS5003;70055;39.436;-77.514;2023-07-31T14:18:32;11;11;
80692;PMS5003;70055;39.436;-77.514;2023-07-31T14:21:01;10;10;
80692;PMS5003;70055;39.436;-77.514;2023-07-31T14:23:29;11;11;
80692;PMS5003;70055;39.436;-77.514;2023-07-31T14:25:58;11;11;
80692;PMS5003;70055;39.436;-77.514;2023-07-31T14:28:27;10;10;
80692;PMS5003;70055;39.436;-77.514;2023-07-31T14:30:56;8;8;
80692;PMS5003;70055;39.436;-77.514;2023-07-31T14:33:24;9;9;
80692;PMS5003;70055;39.436;-77.514;2023-07-31T14:35:53;9;9;
80692;PMS5003;70055;39.436;-77.514;2023-07-31T14:38:21;9;9;
80692;PMS5003;70055;39.436;-77.514;2023-07-31T14:40:50;11;11;
80692;PMS5003;70055;39.436;-77.514;2023-07-31T14:43:19;9;9;
80692;PMS5003;70055;39.436;-77.514;2023-07-31T14:45:47;13;13;
80692;PMS5003;70055;39.436;-77.514;2023-07-31T14:48:15;8;8;
80692;PMS5003;70055;39.436;-77.514;2023-07-31T14:50:43;10;10;
80692;PMS5003;70055;39.436;-77.514;2023-07-31T14:53:12;12;12;
80692;PMS5003;70055;39.436;-77.514;2023-07-31T14:55:42;10;10;
80692;PMS5003;70055;39.436;-77.514;2023-07-31T14:58:11;11;11;
80692;PMS5003;70055;39.436;-77.514;2023-07-31T15:00:39;10;10;
80692;PMS5003;70055;39.436;-77.514;2023-07-31T15:03:08;14;13;
80692;PMS5003;70055;39.436;-77.514;2023-07-31T15:05:36;11;10;
80692;PMS5003;70055;39.436;-77.514;2023-07-31T15:08:04;13;13;
80692;PMS5003;70055;39.436;-77.514;2023-07-31T15:10:32;9;9;
80692;PMS5003;70055;39.436;-77.514;2023-07-31T15:13:01;13;13;
80692;PMS5003;70055;39.436;-77.514;2023-07-31T15:15:29;11;11;
80692;PMS5003;70055;39.436;-77.514;2023-07-31T15:17:57;10;10;
80692;PMS5003;70055;39.436;-77.514;2023-07-31T15:20:25;10;10;
80692;PMS5003;70055;39.436;-77.514;2023-07-31T15:22:53;11;9;
80692;PMS5003;70055;39.436;-77.514;2023-07-31T15:25:22;10;10;
80692;PMS5003;70055;39.436;-77.514;2023-07-31T15:27:50;9;9;
80692;PMS5003;70055;39.436;-77.514;2023-07-31T15:30:18;11;11;
80692;PMS5003;70055;39.436;-77.514;2023-07-31T15:32:46;8;8;
80692;PMS5003;70055;39.436;-77.514;2023-07-31T15:35:15;10;10;
80692;PMS5003;70055;39.436;-77.514;2023-07-31T15:37:44;10;10;
80692;PMS5003;70055;39.436;-77.514;2023-07-31T15:40:12;11;11;
80692;PMS5003;70055;39.436;-77.514;2023-07-31T15:42:39;10;10;
80692;PMS5003;70055;39.436;-77.514;2023-07-31T15:45:09;9;9;
80692;PMS5003;70055;39.436;-77.514;2023-07-31T15:47:37;10;10;
80692;PMS5003;70055;39.436;-77.514;2023-07-31T15:50:07;12;11;
80692;PMS5003;70055;39.436;-77.514;2023-07-31T15:52:35;9;9;
80692;PMS5003;70055;39.436;-77.514;2023-07-31T15:55:04;9;8;
80692;PMS5003;70055;39.436;-77.514;2023-07-31T15:57:32;8;8;
80692;PMS5003;70055;39.436;-77.514;2023-07-31T16:00:01;8;8;
80692;PMS5003;70055;39.436;-77.514;2023-07-31T16:02:30;9;9;
80692;PMS5003;70055;39.436;-77.514;2023-07-31T16:04:57;6;6;
80692;PMS5003;70055;39.436;-77.514;2023-07-31T16:07:25;7;7;